Amity Harbor, New York
Current Conditions -  °F | °C
As of 9:24 AM on Monday 26 Jan 2015 (Local Time) from KFRG Reporting Station
Light Snow Light Snow  
Wind Chill: -11°   Ceiling: 3500
Heat Index: -4°   Visibility: 1.7mi
Dew Point: -7°   Wind: 16mph
Humidity: 81%   Direction: 60°ENE
Pressure: 30.01"   Gusts: 22mph
Location:  40.6858°N, 73.4152°W
Report Text: KFRG 261424Z 06014G19KT 1 3/4SM -SN SCT024 OVC035 M04/M07 A3001 RMK AO2 P0000 T10391067
Loading
Personal Weather Stations






























Interactive Weather Map New forecast layout! Learn more

10-Day Weather Forecast

Advertisements
Track Severe Weather on mobile